Time;durP1;ratioP1;P1;durP2;ratioP2;P2;SDS_P1;SDS_P2;PMS_P1;PMS_P2;Temp;Humidity;BMP_temperature;BMP_pressure;BME280_temperature;BME280_humidity;BME280_pressure;Samples;Min_cycle;Max_cycle;Signal;HPM_P1;HPM_P2
2020/12/27 00:00:40;;;;;;;25.52;14.00;;;;;;;-0.86;66.85;97197.76;1765321;80;21477;-84
2020/12/27 00:03:11;;;;;;;25.37;14.18;;;;;;;-0.93;67.02;97192.46;1795755;78;21029;-83
2020/12/27 00:05:59;;;;;;;24.72;12.68;;;;;;;-0.97;67.07;97191.73;1793949;80;21810;-83
2020/12/27 00:09:13;;;;;;;21.75;10.32;;;;;;;-1.00;67.13;97198.80;1780896;80;21097;-83
2020/12/27 00:12:25;;;;;;;25.35;13.18;;;;;;;-1.01;67.17;97198.38;1795026;80;21077;-83
2020/12/27 00:14:54;;;;;;;26.02;14.28;;;;;;;-1.03;67.28;97209.25;1792737;80;21155;-83
2020/12/27 00:17:25;;;;;;;26.60;13.25;;;;;;;-1.09;67.29;97202.13;1794026;80;21101;-82
2020/12/27 00:20:06;;;;;;;30.90;17.17;;;;;;;-1.17;67.31;97202.06;1795566;78;21205;-82
2020/12/27 00:22:56;;;;;;;36.00;22.05;;;;;;;-1.24;67.43;97205.80;1772355;78;21030;-84
2020/12/27 00:25:46;;;;;;;29.82;16.60;;;;;;;-1.33;67.58;97203.13;1795800;78;21094;-83
2020/12/27 00:28:29;;;;;;;30.57;15.68;;;;;;;-1.37;67.74;97205.43;1794723;80;21160;-81
2020/12/27 00:31:03;;;;;;;27.47;13.40;;;;;;;-1.45;67.76;97212.20;1768227;80;21097;-83
2020/12/27 00:33:39;;;;;;;23.50;10.80;;;;;;;-1.54;68.10;97207.83;1795501;80;21164;-84
2020/12/27 00:36:57;;;;;;;25.40;11.57;;;;;;;-1.59;68.07;97208.03;1738900;77;21081;-84
2020/12/27 00:40:26;;;;;;;21.90;11.35;;;;;;;-1.67;68.15;97211.34;1744921;82;21181;-84
2020/12/27 00:42:55;;;;;;;25.75;12.13;;;;;;;-1.75;68.25;97211.64;1718033;83;21136;-84
2020/12/27 00:45:24;;;;;;;21.05;10.90;;;;;;;-1.87;68.30;97215.98;1717944;83;21496;-84
2020/12/27 00:47:55;;;;;;;17.15;8.78;;;;;;;-1.96;68.56;97215.89;1718216;83;22200;-83
2020/12/27 00:50:25;;;;;;;17.98;9.45;;;;;;;-2.01;68.59;97214.38;1726514;82;21198;-81
2020/12/27 00:52:55;;;;;;;22.52;13.32;;;;;;;-2.05;68.52;97216.22;1726586;82;21120;-84
2020/12/27 00:55:30;;;;;;;27.37;15.05;;;;;;;-2.05;68.54;97212.80;1718373;83;21097;-83
2020/12/27 00:58:38;;;;;;;24.98;10.80;;;;;;;-2.09;68.57;97209.48;1720510;83;21121;-82
2020/12/27 01:01:17;;;;;;;18.37;8.45;;;;;;;-2.19;68.65;97201.27;1718431;83;21219;-83
2020/12/27 01:03:51;;;;;;;19.15;7.97;;;;;;;-2.24;68.83;97196.71;1727205;83;21057;-83
2020/12/27 01:07:04;;;;;;;19.50;8.18;;;;;;;-2.29;68.90;97195.20;1730527;83;21077;-81
2020/12/27 01:09:33;;;;;;;16.25;8.40;;;;;;;-2.33;68.79;97190.59;1726478;83;21128;-85
2020/12/27 01:12:04;;;;;;;17.87;8.38;;;;;;;-2.36;68.78;97185.55;1706625;83;21132;-82
2020/12/27 01:15:26;;;;;;;19.23;9.10;;;;;;;-2.34;68.88;97177.30;1720126;82;21130;-80
2020/12/27 01:18:37;;;;;;;17.00;9.93;;;;;;;-2.31;68.69;97173.75;1719048;83;21110;-83
2020/12/27 01:21:09;;;;;;;15.45;7.78;;;;;;;-2.30;68.65;97180.17;1719262;83;21138;-82
2020/12/27 01:24:18;;;;;;;13.85;5.60;;;;;;;-2.33;68.64;97176.40;1708219;83;21150;-82
2020/12/27 01:26:48;;;;;;;12.50;6.53;;;;;;;-2.44;68.50;97172.08;1718375;83;21097;-84
2020/12/27 01:29:16;;;;;;;12.75;6.97;;;;;;;-2.50;68.72;97168.42;1726168;83;21485;-83
2020/12/27 01:31:47;;;;;;;14.00;7.35;;;;;;;-2.49;68.76;97171.39;1728395;82;21056;-82
2020/12/27 01:34:57;;;;;;;11.08;5.95;;;;;;;-2.49;68.63;97168.39;1745436;82;21165;-82
2020/12/27 01:37:28;;;;;;;14.23;7.33;;;;;;;-2.55;68.50;97174.19;1718218;82;21571;-82
2020/12/27 01:43:35;;;;;;;18.87;10.40;;;;;;;-2.65;68.85;97175.44;1663566;85;21550;-83
2020/12/27 01:46:05;;;;;;;16.65;8.23;;;;;;;-2.65;68.90;97173.70;1678437;85;21160;-82
2020/12/27 01:48:42;;;;;;;20.35;10.82;;;;;;;-2.66;68.82;97179.75;1716272;80;21105;-82
2020/12/27 01:52:05;;;;;;;22.17;12.00;;;;;;;-2.66;68.82;97181.49;1749169;78;21115;31
2020/12/27 01:54:38;;;;;;;21.55;10.95;;;;;;;-2.66;68.62;97178.92;1747588;81;21105;-85
2020/12/27 01:57:18;;;;;;;26.25;14.30;;;;;;;-2.68;68.75;97168.63;1752983;79;23038;-81
2020/12/27 02:00:17;;;;;;;17.48;10.23;;;;;;;-2.65;68.64;97167.25;1734293;82;21516;-82
2020/12/27 02:02:48;;;;;;;20.62;10.25;;;;;;;-2.67;68.53;97160.45;1705076;83;21926;-81
2020/12/27 02:05:49;;;;;;;;;;;;;;;-2.72;68.44;97162.77;1712341;80;21193;-81
2020/12/27 02:08:57;;;;;;;19.87;9.65;;;;;;;-2.79;68.43;97154.83;1696162;83;20211;-84
2020/12/27 02:44:54;;;;;;;26.62;10.93;;;;;;;-3.29;68.93;97134.67;1821447;77;28060;-84
2020/12/27 02:47:17;;;;;;;27.98;13.15;;;;;;;-3.29;68.80;97132.94;1752596;80;21149;-82
2020/12/27 02:50:51;;;;;;;33.28;16.32;;;;;;;-3.24;68.75;97128.48;1669661;84;22012;-82
2020/12/27 02:53:23;;;;;;;19.40;9.55;;;;;;;-3.18;68.40;97122.73;1668688;86;21156;-83
2020/12/27 02:55:59;;;;;;;24.87;11.65;;;;;;;-3.19;68.28;97118.03;1685585;79;21369;-82
2020/12/27 02:59:14;;;;;;;34.78;16.42;;;;;;;-3.21;68.24;97117.22;1722884;81;21102;-84
2020/12/27 03:01:46;;;;;;;22.15;11.05;;;;;;;-3.26;68.21;97117.41;1721589;83;21162;-85
2020/12/27 03:04:18;;;;;;;19.48;9.43;;;;;;;-3.27;68.22;97120.01;1717432;83;21167;-84
2020/12/27 03:06:53;;;;;;;32.98;16.10;;;;;;;-3.30;68.21;97115.81;1711637;78;21137;-81
2020/12/27 03:10:08;;;;;;;31.40;13.55;;;;;;;-3.30;68.17;97106.80;1680944;84;21081;-83
2020/12/27 03:12:43;;;;;;;32.42;15.40;;;;;;;-3.28;68.05;97111.89;1693527;84;21136;-85
2020/12/27 03:19:06;;;;;;;28.55;14.60;;;;;;;-3.25;67.97;97113.92;1737940;81;21066;-83
2020/12/27 03:21:43;;;;;;;30.17;13.95;;;;;;;-3.28;67.70;97097.73;1732557;82;21090;-83
2020/12/27 03:24:21;;;;;;;22.77;10.88;;;;;;;-3.36;67.85;97099.28;1718286;79;21197;-82
2020/12/27 03:27:31;;;;;;;27.17;13.00;;;;;;;-3.31;67.93;97097.84;1680979;85;21216;-84
2020/12/27 03:30:00;;;;;;;44.63;21.48;;;;;;;-3.27;67.90;97101.53;1678955;85;21122;-83
2020/12/27 03:32:31;;;;;;;31.73;12.85;;;;;;;-3.32;67.84;97100.00;1679535;84;22204;-82
2020/12/27 03:35:39;;;;;;;21.33;9.75;;;;;;;-3.33;67.89;97105.60;1681198;84;21313;-84
2020/12/27 03:38:08;;;;;;;29.72;13.68;;;;;;;-3.37;67.93;97105.33;1678864;85;21066;-84
2020/12/27 03:40:43;;;;;;;26.48;12.50;;;;;;;-3.33;67.79;97090.59;1670185;84;21166;-79
2020/12/27 03:44:03;;;;;;;21.62;10.35;;;;;;;-3.33;67.61;97100.45;1692139;78;21270;-83
2020/12/27 03:46:46;;;;;;;20.57;9.48;;;;;;;-3.47;67.71;97097.51;1682941;83;21396;-83
2020/12/27 03:49:33;;;;;;;26.35;12.30;;;;;;;-3.41;67.81;97087.45;1855838;77;28018;-82
2020/12/27 03:52:23;;;;;;;18.60;9.40;;;;;;;-3.51;67.84;97092.90;1822556;78;21046;-84
2020/12/27 03:55:15;;;;;;;17.52;8.90;;;;;;;-3.55;68.02;97093.08;1729779;82;21602;-84
2020/12/27 03:57:48;;;;;;;16.37;8.38;;;;;;;-3.56;68.24;97094.81;1821362;78;21153;-82
2020/12/27 04:00:57;;;;;;;16.37;8.53;;;;;;;-3.54;67.93;97096.87;1822563;78;21112;-84
2020/12/27 04:03:28;;;;;;;11.00;5.87;;;;;;;-3.59;68.02;97087.63;1821763;78;21045;-83
2020/12/27 04:05:59;;;;;;;16.42;8.83;;;;;;;-3.61;68.08;97082.98;1821038;78;21145;-84
2020/12/27 04:08:30;;;;;;;19.20;9.63;;;;;;;-3.56;67.95;97082.36;1821499;78;21198;-84
2020/12/27 04:11:01;;;;;;;23.27;9.03;;;;;;;-3.58;67.77;97085.44;1751604;82;21076;-83
2020/12/27 04:13:30;;;;;;;15.30;7.12;;;;;;;-3.64;67.58;97081.78;1821548;78;20982;-83
2020/12/27 04:16:03;;;;;;;23.10;10.15;;;;;;;-3.67;67.64;97081.90;1750120;82;21076;-84
2020/12/27 04:18:36;;;;;;;23.45;10.50;;;;;;;-3.68;67.61;97082.77;1821378;78;21081;-84
2020/12/27 04:21:14;;;;;;;16.87;7.83;;;;;;;-3.64;67.42;97085.19;1818713;78;21787;-83
2020/12/27 04:23:46;;;;;;;19.00;8.63;;;;;;;-3.62;67.34;97086.42;1821017;78;21156;-83
2020/12/27 04:26:16;;;;;;;19.67;8.93;;;;;;;-3.58;67.20;97086.73;1751306;82;21096;-83
2020/12/27 04:28:49;;;;;;;13.53;7.37;;;;;;;-3.58;67.14;97089.30;1821152;78;21215;-85
2020/12/27 04:31:20;;;;;;;16.17;8.68;;;;;;;-3.58;67.07;97083.70;1751580;82;21057;-83
2020/12/27 04:33:52;;;;;;;19.50;8.70;;;;;;;-3.56;67.00;97079.78;1820508;78;21415;-84
2020/12/27 04:36:26;;;;;;;19.12;9.40;;;;;;;-3.51;66.94;97074.04;1820522;78;21132;-83
2020/12/27 04:38:56;;;;;;;19.48;9.50;;;;;;;-3.46;66.95;97072.61;1751223;82;21096;-83
2020/12/27 04:41:27;;;;;;;23.95;9.68;;;;;;;-3.44;66.92;97070.36;1820801;78;21180;-83
2020/12/27 04:43:58;;;;;;;16.77;7.90;;;;;;;-3.44;66.89;97075.95;1790557;78;21109;-83
2020/12/27 04:46:27;;;;;;;15.03;7.67;;;;;;;-3.41;66.90;97066.41;1751437;82;22226;-83
2020/12/27 04:49:40;;;;;;;14.58;7.28;;;;;;;-3.37;66.79;97067.16;1807437;77;21251;31
2020/12/27 04:53:01;;;;;;;16.62;8.08;;;;;;;-3.36;66.74;97069.67;1725749;83;21096;-84
2020/12/27 04:55:35;;;;;;;20.80;8.83;;;;;;;-3.40;66.43;97063.39;1693834;84;21270;-85
2020/12/27 04:58:23;;;;;;;17.50;8.38;;;;;;;-3.49;66.47;97064.55;1692614;84;21096;-84
2020/12/27 05:01:08;;;;;;;30.43;11.38;;;;;;;-3.53;66.56;97065.54;1701551;83;21462;-81
2020/12/27 05:04:30;;;;;;;24.25;11.43;;;;;;;-3.61;66.73;97070.95;1716152;83;21066;-81
2020/12/27 05:07:57;;;;;;;33.90;15.75;;;;;;;-3.74;67.19;97077.37;1708045;83;21131;-83
2020/12/27 05:11:11;;;;;;;36.95;18.02;;;;;;;-3.79;67.26;97075.42;1745894;82;21131;-82
2020/12/27 05:14:26;;;;;;;19.43;10.17;;;;;;;-3.79;67.43;97063.39;1744678;82;21053;-83
2020/12/27 05:17:36;;;;;;;29.30;12.70;;;;;;;-3.75;67.37;97066.69;1743898;82;21905;-82
2020/12/27 05:20:48;;;;;;;40.45;17.45;;;;;;;-3.71;67.25;97065.70;1727503;82;21194;-81
2020/12/27 05:24:02;;;;;;;58.87;25.70;;;;;;;-3.66;67.32;97059.13;1745960;82;21147;-82
2020/12/27 05:27:15;;;;;;;62.88;28.07;;;;;;;-3.63;67.10;97059.84;1743991;82;21069;-82
2020/12/27 05:30:27;;;;;;;68.15;30.52;;;;;;;-3.61;67.02;97058.08;1745040;82;21159;-81
2020/12/27 05:33:38;;;;;;;57.50;26.57;;;;;;;-3.59;67.02;97050.30;1772350;80;21052;-82
2020/12/27 05:37:11;;;;;;;40.35;18.52;;;;;;;-3.59;66.71;97047.73;1707444;80;21213;-84
2020/12/27 05:40:43;;;;;;;36.40;16.32;;;;;;;-3.61;66.71;97045.22;1713535;82;21157;-81
2020/12/27 05:44:04;;;;;;;29.40;15.88;;;;;;;-3.66;66.73;97044.52;1714550;83;21061;-82
2020/12/27 05:47:23;;;;;;;34.00;16.80;;;;;;;-3.69;66.77;97045.89;1720323;83;21287;-81
2020/12/27 05:50:41;;;;;;;23.20;10.75;;;;;;;-3.71;66.72;97044.28;1773083;77;21166;-82
2020/12/27 05:57:38;;;;;;;21.30;9.85;;;;;;;-3.71;66.67;97037.40;1702942;80;21049;-82
2020/12/27 06:00:59;;;;;;;;;;;;;;;-3.78;66.69;97039.34;1700936;80;21137;-83
2020/12/27 06:04:10;;;;;;;13.93;6.97;;;;;;;-3.84;66.80;97042.11;1698714;80;20226;-83
2020/12/27 06:07:42;;;;;;;18.20;8.40;;;;;;;-3.87;66.75;97049.08;1737470;77;21283;-81
2020/12/27 06:11:29;;;;;;;17.65;8.40;;;;;;;-3.85;66.78;97059.73;1719973;79;22659;31
2020/12/27 06:14:44;;;;;;;15.78;7.72;;;;;;;-3.92;66.72;97062.08;1762921;80;21060;-83
2020/12/27 06:18:11;;;;;;;18.57;9.05;;;;;;;-3.97;67.08;97063.98;1764227;80;21113;-82
2020/12/27 06:22:12;;;;;;;19.30;8.48;;;;;;;-3.99;67.30;97060.61;1765554;77;21545;31
2020/12/27 06:32:36;;;;;;;28.35;9.78;;;;;;;-4.05;68.09;97062.92;1816994;75;26774;31
2020/12/27 06:36:32;;;;;;;40.12;11.70;;;;;;;-4.05;68.24;97063.38;1767329;76;21200;31
2020/12/27 06:46:33;;;;;;;36.30;15.30;;;;;;;-3.79;67.99;97052.27;1779444;75;21030;-81
2020/12/27 07:13:26;;;;;;;46.97;21.97;;;;;;;-3.05;66.41;97016.62;1694040;80;21161;31
2020/12/27 08:55:07;;;;;;;27.52;16.23;;;;;;;-1.04;60.51;96971.09;1668150;80;21363;-81
2020/12/27 10:46:17;;;;;;;;;;;;;;;;;;;;;
2020/12/27 10:56:39;;;;;;;24.82;12.35;;;;;;;0.16;62.62;96773.74;1733606;79;21265;-82
2020/12/27 11:29:54;;;;;;;22.27;13.87;;;;;;;0.46;63.06;96766.55;1772513;77;21333;-81
2020/12/27 11:35:44;;;;;;;20.35;11.50;;;;;;;0.55;62.99;96758.76;1750350;80;21144;-81
2020/12/27 11:38:57;;;;;;;20.72;12.00;;;;;;;0.55;62.96;96742.75;1726949;78;21244;31
2020/12/27 11:41:50;;;;;;;23.02;11.88;;;;;;;0.56;63.05;96734.52;1731687;76;21351;-80
2020/12/27 11:44:43;;;;;;;20.23;11.18;;;;;;;0.58;63.19;96728.31;1779351;79;21184;-81
2020/12/27 11:47:15;;;;;;;21.53;13.50;;;;;;;0.63;63.22;96722.42;1777223;80;21253;-84
2020/12/27 11:50:09;;;;;;;23.45;13.13;;;;;;;0.64;62.98;96720.20;1818486;77;21209;-81
2020/12/27 11:53:05;;;;;;;20.08;11.65;;;;;;;0.64;63.29;96720.20;1809099;77;21049;-81
2020/12/27 11:55:45;;;;;;;24.70;13.03;;;;;;;0.64;63.19;96710.30;1811553;77;21090;-83
2020/12/27 11:58:18;;;;;;;32.20;13.70;;;;;;;0.60;63.50;96710.95;1741860;78;21200;-83
2020/12/27 12:01:02;;;;;;;24.20;13.60;;;;;;;0.60;63.62;96714.83;1691904;82;21127;31
2020/12/27 12:31:14;;;;;;;23.00;12.88;;;;;;;0.13;66.94;96681.17;1719934;78;21228;-81
2020/12/27 12:33:51;;;;;;;26.93;16.00;;;;;;;0.09;67.06;96677.90;1758397;77;21264;-82
2020/12/27 12:36:26;;;;;;;24.07;14.23;;;;;;;0.13;67.28;96677.28;1684008;83;21155;-81
2020/12/27 12:38:55;;;;;;;24.87;14.13;;;;;;;0.16;67.37;96677.11;1724705;82;21314;-82
2020/12/27 12:41:34;;;;;;;23.27;13.55;;;;;;;0.19;67.43;96681.67;1723808;77;21350;-83
2020/12/27 13:01:38;;;;;;;25.32;15.98;;;;;;;0.23;68.22;96630.06;1766126;76;21128;31
2020/12/27 13:10:25;;;;;;;24.32;13.83;;;;;;;0.20;68.61;96626.83;1816901;77;21038;-82
2020/12/27 13:16:16;;;;;;;22.77;13.48;;;;;;;0.18;68.71;96622.20;1781757;76;21284;31
2020/12/27 13:19:44;;;;;;;30.95;15.93;;;;;;;0.18;68.67;96624.80;1690998;83;21197;-83
2020/12/27 13:22:14;;;;;;;23.77;14.18;;;;;;;0.21;68.73;96607.78;1736133;79;21054;-81
2020/12/27 13:24:47;;;;;;;23.10;12.88;;;;;;;0.26;68.66;96600.59;1745833;80;21211;-82
2020/12/27 13:27:53;;;;;;;22.82;13.98;;;;;;;0.33;68.29;96591.55;1704429;80;21069;-83
2020/12/27 13:30:41;;;;;;;73.15;36.73;;;;;;;0.36;68.22;96591.86;1781144;76;21062;-81
2020/12/27 13:33:37;;;;;;;26.68;14.93;;;;;;;0.42;68.21;96596.70;1788440;78;21193;-83
2020/12/27 13:36:57;;;;;;;34.45;18.60;;;;;;;0.51;68.12;96589.22;1786895;77;21040;-82
2020/12/27 13:39:50;;;;;;;47.80;25.08;;;;;;;0.58;67.98;96585.81;1769006;79;21154;-83
2020/12/27 13:50:33;;;;;;;21.73;13.80;;;;;;;0.84;68.04;96564.05;1751303;76;21194;-83
2020/12/27 13:57:43;;;;;;;22.17;13.83;;;;;;;0.94;67.86;96572.93;1690784;80;21197;-85
2020/12/27 14:00:17;;;;;;;21.50;13.65;;;;;;;0.83;68.21;96559.77;1703858;80;21468;-82
2020/12/27 14:03:27;;;;;;;19.50;11.25;;;;;;;0.81;68.53;96554.67;1744645;77;21223;31
2020/12/27 14:06:28;;;;;;;23.42;14.20;;;;;;;0.77;68.68;96550.16;1706444;78;21258;-82
2020/12/27 14:45:12;;;;;;;30.00;16.23;;;;;;;0.04;72.22;96504.33;1755424;77;21286;31
2020/12/27 15:00:24;;;;;;;29.70;18.42;;;;;;;-0.11;73.13;96480.16;1735183;76;21351;31
2020/12/27 15:03:33;;;;;;;26.25;15.35;;;;;;;-0.15;73.43;96470.89;1768447;76;21275;31
2020/12/27 15:10:31;;;;;;;30.15;18.30;;;;;;;-0.25;73.86;96466.67;1753866;76;21379;-81
2020/12/27 15:13:43;;;;;;;22.67;15.03;;;;;;;-0.28;74.15;96467.70;1754349;76;23118;31
2020/12/27 15:16:30;;;;;;;23.95;15.58;;;;;;;-0.27;74.20;96473.70;1727363;77;21223;-81
2020/12/27 15:19:01;;;;;;;23.90;16.35;;;;;;;-0.30;74.38;96467.39;1732082;81;21181;-82
2020/12/27 15:21:45;;;;;;;29.98;19.00;;;;;;;-0.31;74.62;96469.61;1727143;80;21319;31
2020/12/27 15:24:41;;;;;;;26.95;18.02;;;;;;;-0.36;74.73;96458.67;1722038;80;21294;-82
2020/12/27 15:27:34;;;;;;;28.10;18.65;;;;;;;-0.38;74.96;96443.25;1766444;78;21212;-81
2020/12/27 15:30:42;;;;;;;27.93;15.93;;;;;;;-0.36;75.12;96430.22;1774033;79;21234;-83
2020/12/27 15:35:47;;;;;;;27.32;18.92;;;;;;;-0.41;75.43;96427.91;1742454;78;21165;-82
2020/12/27 15:38:22;;;;;;;28.30;18.73;;;;;;;-0.41;75.50;96429.67;1760331;80;21221;-82
2020/12/27 15:41:11;;;;;;;26.97;16.85;;;;;;;-0.44;75.57;96429.83;1757884;76;21082;-83
2020/12/27 15:43:50;;;;;;;27.77;17.85;;;;;;;-0.42;75.77;96424.09;1764638;79;21204;-82
2020/12/27 15:49:43;;;;;;;31.57;19.57;;;;;;;-0.49;76.25;96413.73;1741540;80;21114;-80
2020/12/27 15:55:08;;;;;;;31.73;19.30;;;;;;;-0.52;76.49;96391.47;1748549;78;21094;31
2020/12/27 16:10:03;;;;;;;41.23;24.30;;;;;;;-0.51;76.83;96376.78;1717093;80;21192;-80
2020/12/27 16:17:45;;;;;;;29.52;17.73;;;;;;;-0.55;76.85;96361.89;1739434;76;21225;31
2020/12/27 16:21:08;;;;;;;38.20;22.95;;;;;;;-0.53;76.88;96357.48;1700687;80;21343;-80
2020/12/27 16:24:10;;;;;;;37.03;22.82;;;;;;;-0.59;76.76;96342.31;1746875;80;21101;-81
2020/12/27 16:34:49;;;;;;;32.83;20.60;;;;;;;-0.56;77.11;96326.14;1767949;76;28558;-81
2020/12/27 16:37:32;;;;;;;32.42;19.67;;;;;;;-0.61;77.14;96323.45;1726182;82;21265;-82
2020/12/27 16:47:34;;;;;;;39.80;30.10;;;;;;;-0.65;77.46;96327.14;1696039;80;21047;-81
2020/12/27 16:50:09;;;;;;;33.48;22.67;;;;;;;-0.64;77.60;96324.47;1720060;80;21130;-81
2020/12/27 16:53:34;;;;;;;33.13;17.77;;;;;;;-0.59;77.67;96298.35;1708619;80;21235;31
2020/12/27 16:56:06;;;;;;;27.17;16.95;;;;;;;-0.54;77.50;96284.67;1681423;82;21389;-81
2020/12/27 17:02:17;;;;;;;34.25;21.87;;;;;;;-0.45;77.31;96293.66;1624596;84;21136;-81
2020/12/27 17:04:55;;;;;;;32.10;20.20;;;;;;;-0.46;77.34;96295.42;1656045;80;21129;-82
2020/12/27 17:07:55;;;;;;;31.00;19.73;;;;;;;-0.41;77.33;96288.23;1716200;80;21137;-83
2020/12/27 17:10:33;;;;;;;33.83;18.95;;;;;;;-0.38;77.23;96272.52;1699922;78;22990;-83
2020/12/27 17:43:40;;;;;;;33.67;19.45;;;;;;;-0.18;77.47;96238.98;1710249;79;21347;-81
2020/12/27 17:47:27;;;;;;;30.82;19.90;;;;;;;-0.16;77.49;96244.92;1674575;81;21268;31
2020/12/27 18:12:55;;;;;;;34.90;20.85;;;;;;;0.36;76.74;96188.66;1669633;82;21155;-81
2020/12/27 18:16:14;;;;;;;32.83;19.02;;;;;;;0.37;76.54;96180.42;1669415;83;21142;-84
2020/12/27 18:19:10;;;;;;;;;;;;;;;;;;;;;
2020/12/27 18:22:22;;;;;;;32.10;19.50;;;;;;;0.41;76.18;96176.22;1650826;83;21138;31
2020/12/27 18:25:16;;;;;;;34.10;21.12;;;;;;;0.37;76.10;96164.42;1602871;89;21199;-82
2020/12/27 18:27:50;;;;;;;33.15;21.68;;;;;;;0.34;76.23;96172.83;1620529;88;21169;-82
2020/12/27 18:30:30;;;;;;;44.15;22.77;;;;;;;0.34;76.35;96163.30;1621011;87;21238;-82
2020/12/27 18:33:16;;;;;;;30.45;19.02;;;;;;;0.38;76.39;96163.48;1641617;87;21167;-82
2020/12/27 18:35:57;;;;;;;39.20;22.20;;;;;;;0.42;76.17;96144.24;1624693;88;21222;-84
2020/12/27 18:42:54;;;;;;;32.38;19.35;;;;;;;0.38;76.21;96141.94;1507892;92;21225;-83
2020/12/27 18:45:52;;;;;;;30.27;19.17;;;;;;;0.31;75.99;96140.20;1513169;93;21233;-80
2020/12/27 18:48:30;;;;;;;41.98;26.25;;;;;;;0.22;76.29;96138.19;1616369;84;21242;-83
2020/12/27 18:51:45;;;;;;;34.60;21.05;;;;;;;0.20;76.47;96130.52;1655983;84;21045;-82
2020/12/27 18:54:37;;;;;;;35.60;22.07;;;;;;;0.19;76.53;96125.45;1641514;85;21140;-82
2020/12/27 18:57:57;;;;;;;41.40;24.63;;;;;;;0.09;76.79;96128.23;1641407;84;21227;-81
2020/12/27 19:00:42;;;;;;;39.73;23.92;;;;;;;0.05;77.21;96127.59;1641234;87;21187;-82
2020/12/27 19:03:50;;;;;;;42.38;26.05;;;;;;;0.07;77.36;96134.81;1589666;84;21603;-80
2020/12/27 19:10:25;;;;;;;40.20;22.90;;;;;;;0.19;77.37;96130.63;1587574;83;21364;-81
2020/12/27 19:13:04;;;;;;;35.92;22.40;;;;;;;0.18;77.33;96122.03;1605173;86;21159;-82
2020/12/27 19:15:39;;;;;;;31.95;19.00;;;;;;;0.18;77.31;96127.21;1585380;89;21166;-83
2020/12/27 19:18:16;;;;;;;34.92;21.25;;;;;;;0.17;77.38;96134.58;1605434;89;21157;-80
2020/12/27 19:21:32;;;;;;;36.15;22.45;;;;;;;0.13;77.46;96124.08;1604592;89;21237;-83
2020/12/27 19:24:13;;;;;;;43.33;28.42;;;;;;;0.12;77.66;96113.80;1606371;89;21202;-82
2020/12/27 19:26:49;;;;;;;35.05;19.48;;;;;;;0.10;77.77;96107.42;1656556;83;21166;-82
2020/12/27 19:29:20;;;;;;;36.38;20.45;;;;;;;0.08;78.02;96095.52;1660234;86;21145;-83
2020/12/27 19:31:57;;;;;;;32.35;20.97;;;;;;;0.03;78.02;96096.27;1660601;86;21159;-83
2020/12/27 19:34:26;;;;;;;29.55;18.75;;;;;;;0.01;78.29;96105.90;1660206;86;21396;-83
2020/12/27 19:36:57;;;;;;;35.40;21.77;;;;;;;0.04;78.42;96092.28;1660313;86;21202;-83
2020/12/27 19:39:28;;;;;;;33.70;20.52;;;;;;;0.00;78.41;96085.66;1660590;86;21203;-83
2020/12/27 19:42:04;;;;;;;32.70;21.48;;;;;;;-0.05;78.63;96077.35;1662344;85;21115;-82
2020/12/27 19:44:43;;;;;;;33.80;21.23;;;;;;;-0.03;78.80;96083.25;1675170;85;21116;-84
2020/12/27 19:47:54;;;;;;;31.68;20.37;;;;;;;-0.03;78.90;96069.02;1674732;84;21283;-84
2020/12/27 19:50:26;;;;;;;33.80;20.20;;;;;;;-0.06;79.02;96086.02;1674837;85;21175;-85
2020/12/27 19:52:58;;;;;;;31.25;20.70;;;;;;;-0.07;79.20;96084.36;1675744;85;21199;-82
2020/12/27 19:55:57;;;;;;;35.33;20.57;;;;;;;-0.03;79.26;96087.12;1675838;85;21068;-84
2020/12/27 20:06:27;;;;;;;32.75;20.68;;;;;;;-0.02;79.10;96074.55;1664528;84;21243;-84
2020/12/27 20:09:39;;;;;;;34.17;20.77;;;;;;;-0.05;79.19;96064.41;1660520;80;21211;-82
2020/12/27 20:12:54;;;;;;;32.58;20.77;;;;;;;-0.04;79.12;96062.19;1617670;88;21134;-85
2020/12/27 20:16:01;;;;;;;40.25;24.07;;;;;;;-0.01;79.12;96062.80;1605286;88;21145;-85
2020/12/27 20:18:41;;;;;;;41.88;26.27;;;;;;;-0.01;78.86;96067.98;1618939;88;21195;-84
2020/12/27 20:21:50;;;;;;;40.17;24.92;;;;;;;-0.01;78.85;96064.09;1616857;88;21204;-83
2020/12/27 20:24:29;;;;;;;36.15;23.02;;;;;;;-0.02;78.70;96058.56;1619269;88;21240;-84
2020/12/27 20:27:07;;;;;;;37.53;23.25;;;;;;;-0.01;78.45;96060.68;1619474;87;21205;-85
2020/12/27 20:48:26;;;;;;;48.80;30.27;;;;;;;0.10;77.86;96047.06;1604382;89;21206;-86
2020/12/27 20:51:13;;;;;;;48.38;28.85;;;;;;;0.13;77.85;96045.12;1604381;89;21229;-84
2020/12/27 20:54:10;;;;;;;52.15;30.85;;;;;;;0.18;77.75;96044.36;1645679;84;21518;-84
2020/12/27 20:57:18;;;;;;;57.95;32.50;;;;;;;0.23;77.67;96055.69;1694408;84;21205;-83
2020/12/27 20:59:49;;;;;;;59.93;33.38;;;;;;;0.30;77.48;96040.15;1695709;84;21240;-83
2020/12/27 21:06:29;;;;;;;49.88;27.37;;;;;;;0.38;77.19;96043.52;1640767;82;22799;-81
2020/12/27 21:13:53;;;;;;;38.08;22.73;;;;;;;0.37;76.85;96009.03;1694307;80;21176;-83
2020/12/27 21:29:22;;;;;;;57.60;36.17;;;;;;;0.36;77.08;95993.13;1676809;80;22732;31
2020/12/27 21:36:46;;;;;;;37.80;23.30;;;;;;;0.39;76.94;95976.08;1639903;82;21744;31
2020/12/27 21:40:16;;;;;;;41.58;26.45;;;;;;;0.33;77.06;95953.19;1572019;85;23026;31
2020/12/27 21:47:16;;;;;;;39.33;24.87;;;;;;;0.22;77.30;95961.66;1599020;85;21107;-83
2020/12/27 21:50:39;;;;;;;37.28;23.90;;;;;;;0.20;77.56;95970.00;1608479;86;21348;-81
2020/12/27 21:54:00;;;;;;;34.53;21.95;;;;;;;0.13;77.77;95966.63;1618660;84;21205;-83
2020/12/27 21:57:17;;;;;;;35.38;22.02;;;;;;;0.11;77.99;95958.11;1574538;86;21315;-82
2020/12/27 22:00:54;;;;;;;39.33;24.82;;;;;;;0.03;78.31;95933.20;1627955;84;21228;31
2020/12/27 22:04:09;;;;;;;37.95;22.42;;;;;;;-0.01;78.62;95932.56;1597242;83;21528;-84
2020/12/27 22:06:59;;;;;;;38.33;22.20;;;;;;;-0.10;78.98;95925.42;1602057;82;21180;-83
2020/12/27 22:09:35;;;;;;;35.90;22.93;;;;;;;-0.13;79.24;95930.78;1605007;84;21121;-85
2020/12/27 22:12:10;;;;;;;37.73;22.82;;;;;;;-0.16;79.45;95936.17;1582336;86;21238;-83
2020/12/27 22:25:09;;;;;;;36.25;21.77;;;;;;;-0.26;80.21;95894.53;1718566;80;21122;-83
2020/12/27 22:27:48;;;;;;;34.67;21.70;;;;;;;-0.25;80.39;95887.59;1692788;85;21197;-85
2020/12/27 22:30:28;;;;;;;32.85;20.08;;;;;;;-0.24;80.47;95887.48;1687525;80;21501;31
2020/12/27 22:33:54;;;;;;;32.35;20.02;;;;;;;-0.21;80.55;95882.12;1670843;83;21638;-85
2020/12/27 22:36:28;;;;;;;36.05;22.52;;;;;;;-0.16;80.57;95880.07;1700295;84;21074;-83
2020/12/27 22:38:59;;;;;;;33.88;20.80;;;;;;;-0.11;80.58;95876.72;1698547;84;21067;-84
2020/12/27 22:41:49;;;;;;;34.15;21.52;;;;;;;-0.04;80.54;95868.09;1689306;84;21185;-85
2020/12/27 22:44:21;;;;;;;36.05;21.40;;;;;;;0.01;80.49;95869.91;1689444;84;21172;-82
2020/12/27 22:46:52;;;;;;;29.92;19.77;;;;;;;0.06;80.43;95877.34;1689519;84;21173;-85
2020/12/27 22:49:21;;;;;;;31.77;20.08;;;;;;;0.08;80.21;95876.80;1689136;84;21186;-83
2020/12/27 22:51:51;;;;;;;31.35;21.05;;;;;;;0.06;80.21;95863.10;1688772;85;21563;-83
2020/12/27 22:54:21;;;;;;;32.95;22.20;;;;;;;0.06;80.38;95863.96;1688402;84;21138;-84
2020/12/27 22:56:50;;;;;;;33.55;20.60;;;;;;;0.10;80.42;95869.74;1752213;77;21379;-85
2020/12/27 22:59:20;;;;;;;34.03;20.00;;;;;;;0.10;80.66;95872.33;1763554;80;21092;-83
2020/12/27 23:01:53;;;;;;;31.68;19.12;;;;;;;0.11;80.63;95874.81;1791551;80;21128;-83
2020/12/27 23:04:24;;;;;;;29.87;20.05;;;;;;;0.12;80.59;95873.91;1791328;80;21103;-85
2020/12/27 23:07:03;;;;;;;29.12;19.17;;;;;;;0.15;80.68;95862.50;1792252;79;21024;-83
2020/12/27 23:10:12;;;;;;;29.48;19.73;;;;;;;0.20;80.53;95861.73;1721560;79;22843;-82
2020/12/27 23:13:24;;;;;;;30.87;21.37;;;;;;;0.33;80.17;95860.43;1689768;82;21185;-84
2020/12/27 23:17:00;;;;;;;30.57;21.05;;;;;;;0.33;80.17;95860.43;1672944;80;21552;31
2020/12/27 23:19:30;;;;;;;31.50;18.92;;;;;;;0.36;80.12;95853.30;1707481;78;20998;-84
2020/12/27 23:22:14;;;;;;;32.03;20.12;;;;;;;0.40;79.87;95844.36;1719082;83;21078;-84
2020/12/27 23:24:43;;;;;;;31.35;19.73;;;;;;;0.41;79.68;95836.12;1742762;79;21378;-84
2020/12/27 23:27:13;;;;;;;27.58;18.85;;;;;;;0.41;79.79;95826.59;1767724;81;21108;-83
2020/12/27 23:33:43;;;;;;;34.18;21.17;;;;;;;0.40;79.57;95827.53;1720694;79;21168;-83
2020/12/27 23:36:33;;;;;;;33.83;22.13;;;;;;;0.40;79.67;95810.69;1718613;83;21156;-85